Flight Track Log - Related Links

Times and Time Zones

All times are in EDT time to prevent confusion due to time zone crossing. See the SWA3247 flight status page for this flight to view local times or setup timezone preferences in your user account.

Time Position Orientation Groundspeed Altitude Reporting Facility
EDT Latitude Longitude Course Direction KTS MPH feet Rate Location/Type
Thu 09:29:53 PM 36.0778 -115.1756 271° West 155 178 3,500  Level Los Angeles Center
Thu 09:31:06 PM 36.0783 -115.2581 271° West 228 262 5,800 2,346 Climbing Los Angeles Center
Thu 09:32:29 PM 36.1550 -115.2839 345° North 255 293 9,600 2,234 Climbing Los Angeles Center
Thu 09:33:31 PM 36.1881 -115.1956 65° Northeast 294 338 11,200 1,839 Climbing Los Angeles Center
Thu 09:34:33 PM 36.1969 -115.0481 86° East 367 422 13,400 2,323 Climbing Los Angeles Center
Thu 09:35:35 PM 36.1981 -114.9142 89° East 387 445 16,000 2,371 Climbing Los Angeles Center
Thu 09:36:37 PM 36.1997 -114.7739 89° East 406 467 18,300 2,274 Climbing Los Angeles Center
Thu 09:37:39 PM 36.1969 -114.6269 91° East 425 489 20,700 2,323 Climbing Los Angeles Center
Thu 09:38:41 PM 36.1950 -114.4786 91° East 432 497 23,100 2,081 Climbing Los Angeles Center
Thu 09:39:43 PM 36.1939 -114.3275 90° East 438 504 25,000 1,756 Climbing Los Angeles Center
Thu 09:40:44 PM 36.1997 -114.1703 87° East 455 524 26,700 1,707 Climbing Los Angeles Center
Thu 09:41:46 PM 36.2242 -113.9781 81° East 470 541 28,500 1,548 Climbing Los Angeles Center
Thu 09:42:48 PM 36.2439 -113.8125 82° East 484 557 29,900 1,548 Climbing Los Angeles Center
Thu 09:43:50 PM 36.2717 -113.6481 78° East 488 562 31,700 1,742 Climbing Los Angeles Center
Thu 09:44:52 PM 36.3472 -113.5086 56° Northeast 485 558 33,500 1,113 Climbing Los Angeles Center
Thu 09:45:54 PM 36.4228 -113.3744 55° Northeast 478 550 34,000 242 Climbing Los Angeles Center
Thu 09:46:56 PM 36.5094 -113.2203 55° Northeast 471 542 34,000  Level Los Angeles Center
Thu 09:47:58 PM 36.5844 -113.0869 55° Northeast 472 543 34,000 629 Level Los Angeles Center
Thu 09:49:00 PM 36.6514 -112.9489 59° Northeast 469 540 35,300 1,024 Climbing Los Angeles Center
Thu 09:50:01 PM 36.6900 -112.8278 68° East 471 542 36,100 829 Climbing Los Angeles Center
Thu 09:51:03 PM 36.7506 -112.6447 68° East 477 549 37,000 435 Climbing Los Angeles Center
Thu 09:52:05 PM 36.8100 -112.4603 68° East 480 552 37,000  Level Los Angeles Center
Thu 09:53:07 PM 36.8594 -112.3081 68° East 478 550 37,000  Level Los Angeles Center
Thu 09:54:09 PM 36.9081 -112.1561 68° East 475 547 37,000  Level Los Angeles Center
Thu 09:55:11 PM 36.9561 -112.0039 68° East 474 545 37,000  Level Los Angeles Center
Thu 09:56:12 PM 37.0044 -111.8522 68° East 473 544 37,000  Level Los Angeles Center
Thu 09:57:14 PM 37.0522 -111.7008 68° East 470 541 37,000  Level Los Angeles Center
Thu 09:58:16 PM 37.1003 -111.5486 68° East 471 542 37,000  Level Los Angeles Center
Thu 09:58:52 PM 37.1278 -111.4575 69° East 471 542 37,000  Level Denver Center
Thu 09:59:54 PM 37.1850 -111.2725 69° East 475 547 37,000  Level Denver Center
Thu 10:00:56 PM 37.2319 -111.1189 69° East 474 545 37,000  Level Denver Center
Thu 10:01:58 PM 37.2797 -110.9650 69° East 474 545 37,000  Level Denver Center
Thu 10:03:00 PM 37.3267 -110.8111 69° East 475 547 37,000  Level Denver Center
Thu 10:04:14 PM 37.3731 -110.6569 69° East 474 545 37,000  Level Denver Center
Thu 10:05:16 PM 37.4386 -110.4411 69° East 474 545 37,000  Level Denver Center
Thu 10:06:18 PM 37.4853 -110.2814 70° East 472 543 37,000  Level Denver Center
Thu 10:07:20 PM 37.5300 -110.1331 69° East 473 544 37,000  Level Denver Center
Thu 10:08:22 PM 37.5742 -109.9833 70° East 475 547 37,000  Level Denver Center
Thu 10:09:25 PM 37.6250 -109.8094 70° East 474 545 37,000  Level Denver Center
Thu 10:10:27 PM 37.6692 -109.6608 69° East 472 543 37,000  Level Denver Center
Thu 10:11:29 PM 37.7189 -109.4858 70° East 474 545 37,000  Level Denver Center
Thu 10:12:31 PM 37.7619 -109.3358 70° East 473 544 37,000  Level Denver Center
Thu 10:13:33 PM 37.8125 -109.1622 70° East 472 543 37,000  Level Denver Center
Thu 10:14:35 PM 37.8547 -109.0133 70° East 469 540 37,000  Level Denver Center
Thu 10:15:37 PM 37.9044 -108.8381 70° East 472 543 37,000  Level Denver Center
Thu 10:16:39 PM 37.9469 -108.6869 70° East 474 545 37,000  Level Denver Center
Thu 10:17:41 PM 37.9964 -108.5114 70° East 474 545 37,000  Level Denver Center
Thu 10:18:43 PM 38.0389 -108.3589 70° East 477 549 37,000  Level Denver Center
Thu 10:19:45 PM 38.0875 -108.1808 71° East 476 548 37,000  Level Denver Center
Thu 10:20:48 PM 38.1300 -108.0292 70° East 477 549 37,000  Level Denver Center
Thu 10:21:50 PM 38.1714 -107.8808 70° East 470 541 37,000  Level Denver Center
Thu 10:22:52 PM 38.2256 -107.7078 68° East 471 542 37,000  Level Denver Center
Thu 10:23:54 PM 38.2694 -107.5597 69° East 469 540 37,000  Level Denver Center
Thu 10:24:56 PM 38.3214 -107.3853 69° East 473 544 37,000  Level Denver Center
Thu 10:25:58 PM 38.3647 -107.2369 70° East 470 541 37,000  Level Denver Center
Thu 10:27:00 PM 38.4139 -107.0703 69° East 471 542 37,000  Level Denver Center
Thu 10:28:02 PM 38.4594 -106.9144 69° East 469 540 37,000  Level Denver Center
Thu 10:29:04 PM 38.5042 -106.7564 70° East 475 547 37,000  Level Denver Center
Thu 10:30:06 PM 38.5497 -106.5989 70° East 475 547 37,000  Level Denver Center
Thu 10:31:08 PM 38.6047 -106.4086 70° East 480 552 37,000  Level Denver Center
Thu 10:32:10 PM 38.6483 -106.2544 70° East 466 536 37,000  Level Denver Center
Thu 10:33:12 PM 38.6947 -106.0878 70° East 469 540 37,000  Level Denver Center
Thu 10:34:14 PM 38.7389 -105.9314 70° East 470 541 37,000  Level Denver Center
Thu 10:35:17 PM 38.7839 -105.7731 70° East 473 544 37,000  Level Denver Center
Thu 10:36:19 PM 38.8286 -105.6144 70° East 474 545 37,000  Level Denver Center
Thu 10:37:21 PM 38.8800 -105.4236 71° East 475 547 37,000  Level Denver Center
Thu 10:38:23 PM 38.9236 -105.2628 71° East 478 550 37,000  Level Denver Center
Thu 10:39:25 PM 38.9675 -105.1036 70° East 476 548 37,000  Level Denver Center
Thu 10:40:27 PM 39.0106 -104.9428 71° East 478 550 37,000  Level Denver Center
Thu 10:41:29 PM 39.0536 -104.7839 71° East 477 549 37,000  Level Denver Center
Thu 10:42:31 PM 39.1050 -104.5936 71° East 474 545 37,000  Level Denver Center
Thu 10:43:33 PM 39.1467 -104.4350 71° East 474 545 37,000  Level Denver Center
Thu 10:44:35 PM 39.1881 -104.2775 71° East 469 540 37,000  Level Denver Center
Thu 10:45:37 PM 39.2297 -104.1186 71° East 471 542 37,000  Level Denver Center
Thu 10:46:39 PM 39.2706 -103.9622 71° East 466 536 37,000  Level Denver Center
Thu 10:47:41 PM 39.3194 -103.7725 72° East 467 537 37,000  Level Denver Center
Thu 10:48:43 PM 39.3597 -103.6164 72° East 461 531 37,000  Level Denver Center
Thu 10:49:45 PM 39.3997 -103.4611 72° East 459 528 37,000  Level Denver Center
Thu 10:50:47 PM 39.4383 -103.3058 72° East 455 524 37,000  Level Denver Center
Thu 10:51:49 PM 39.4778 -103.1522 72° East 452 520 37,000  Level Denver Center
Thu 10:52:51 PM 39.5161 -102.9964 72° East 455 524 37,000  Level Denver Center
Thu 10:53:53 PM 39.5625 -102.8092 72° East 458 527 37,000  Level Denver Center
Thu 10:54:55 PM 39.6019 -102.6528 72° East 458 527 37,000  Level Denver Center
Thu 10:55:57 PM 39.6386 -102.5017 72° East 460 529 37,000  Level Denver Center
Thu 10:56:59 PM 39.6814 -102.3242 73° East 462 532 37,000  Level Denver Center
Thu 10:58:01 PM 39.7183 -102.1728 72° East 460 529 37,000  Level Denver Center
Thu 10:59:03 PM 39.7606 -101.9944 73° East 463 533 37,000  Level Denver Center
Thu 11:00:05 PM 39.7911 -101.8675 73° East 463 533 37,000  Level Denver Center
Thu 11:01:07 PM 39.8386 -101.6647 73° East 461 531 37,000  Level Denver Center
Thu 11:02:09 PM 39.8744 -101.5136 73° East 459 528 37,000  Level Denver Center
Thu 11:03:11 PM 39.9156 -101.3369 73° East 458 527 37,000  Level Denver Center
Thu 11:04:13 PM 39.9506 -101.1864 73° East 455 524 37,000  Level Denver Center
Thu 11:05:15 PM 39.9900 -101.0153 73° East 446 513 37,000  Level Denver Center
Thu 11:06:16 PM 40.0181 -100.8922 73° East 446 513 37,000  Level Denver Center
Thu 11:07:19 PM 40.0625 -100.6931 74° East 449 517 37,000  Level Denver Center
Thu 11:08:20 PM 40.0967 -100.5425 73° East 452 520 37,000  Level Denver Center
Thu 11:09:22 PM 40.1372 -100.3642 73° East 458 527 37,000  Level Denver Center
Thu 11:10:24 PM 40.1700 -100.2111 74° East 459 528 37,000  Level Denver Center
Thu 11:11:26 PM 40.1983 -100.0825 74° East 462 532 37,000  Level Denver Center
Thu 11:12:28 PM 40.2433 -99.8761 74° East 466 536 37,000  Level Denver Center
Thu 11:13:30 PM 40.2742 -99.7342 74° East 462 532 37,000  Level Denver Center
Thu 11:14:32 PM 40.3167 -99.5389 74° East 466 536 37,000  Level Denver Center
Thu 11:15:34 PM 40.3514 -99.3764 74° East 466 536 37,000  Level Denver Center
Thu 11:16:36 PM 40.3861 -99.2111 75° East 471 542 37,000  Level Denver Center
Thu 11:17:38 PM 40.4208 -99.0483 74° East 468 539 37,000  Level Denver Center
Thu 11:18:40 PM 40.4544 -98.8853 75° East 465 535 37,000  Level Denver Center
Thu 11:19:41 PM 40.4953 -98.6900 75° East 465 535 37,000  Level Denver Center
Thu 11:20:43 PM 40.5272 -98.5278 75° East 463 533 37,000  Level Denver Center
Thu 11:22:12 PM 40.5728 -98.3050 75° East 457 526 37,000  Level Minneapolis Center
Thu 11:23:25 PM 40.6056 -98.1439 75° East 458 527 37,000  Level Minneapolis Center
Thu 11:24:27 PM 40.6436 -97.9519 75° East 457 526 37,000  Level Minneapolis Center
Thu 11:25:40 PM 40.6811 -97.7608 75° East 454 522 37,000  Level Minneapolis Center
Thu 11:26:42 PM 40.7181 -97.5708 76° East 451 519 37,000  Level Minneapolis Center
Thu 11:27:44 PM 40.7497 -97.4131 75° East 449 517 37,000  Level Minneapolis Center
Thu 11:28:46 PM 40.7797 -97.2553 76° East 447 514 37,000  Level Minneapolis Center
Thu 11:29:47 PM 40.8100 -97.0972 76° East 446 513 37,000  Level Minneapolis Center
Thu 11:30:48 PM 40.8397 -96.9386 76° East 446 513 37,000  Level Minneapolis Center
Thu 11:31:50 PM 40.8700 -96.7794 76° East 447 514 37,000  Level Minneapolis Center
Thu 11:32:51 PM 40.8989 -96.6200 76° East 448 516 37,000  Level Minneapolis Center
Thu 11:33:53 PM 40.9278 -96.4244 79° East 448 516 37,000  Level Minneapolis Center
Thu 11:34:54 PM 40.9539 -96.2661 78° East 450 518 37,000  Level Minneapolis Center
Thu 11:35:55 PM 40.9761 -96.1383 77° East 449 517 37,000  Level Minneapolis Center
Thu 11:36:57 PM 41.0100 -95.9475 77° East 449 517 37,000  Level Minneapolis Center
Thu 11:37:59 PM 41.0389 -95.7881 76° East 449 517 37,000  Level Minneapolis Center
Thu 11:39:00 PM 41.0672 -95.6292 77° East 449 517 37,000  Level Minneapolis Center
Thu 11:40:01 PM 41.1019 -95.4347 77° East 453 521 37,000  Level Minneapolis Center
Thu 11:41:02 PM 41.1308 -95.2747 76° East 451 519 37,000  Level Minneapolis Center
Thu 11:42:04 PM 41.1583 -95.1142 77° East 449 517 37,000  Level Minneapolis Center
Thu 11:43:05 PM 41.1858 -94.9511 77° East 451 519 37,000  Level Minneapolis Center
Thu 11:44:06 PM 41.2136 -94.7878 77° East 455 524 37,000  Level Minneapolis Center
Thu 11:45:07 PM 41.2411 -94.6258 77° East 453 521 37,000  Level Minneapolis Center
Thu 11:46:09 PM 41.2667 -94.4614 78° East 454 522 37,000  Level Minneapolis Center
Thu 11:47:10 PM 41.2883 -94.3314 77° East 453 521 37,000  Level Minneapolis Center
Thu 11:48:11 PM 41.3206 -94.1342 78° East 453 521 37,000  Level Minneapolis Center
Thu 11:49:12 PM 41.3469 -93.9722 78° East 452 520 37,000  Level Minneapolis Center
Thu 11:50:13 PM 41.3781 -93.7769 78° East 452 520 37,000  Level Minneapolis Center
Thu 11:51:15 PM 41.4050 -93.6142 78° East 452 520 37,000  Level Minneapolis Center
Thu 11:52:16 PM 41.4311 -93.4494 78° East 454 522 37,000  Level Minneapolis Center
Thu 11:53:17 PM 41.4561 -93.2867 78° East 453 521 37,000  Level Minneapolis Center
Thu 11:54:18 PM 41.4825 -93.1214 78° East 455 524 37,000  Level Minneapolis Center
Thu 11:55:19 PM 41.5061 -92.9572 79° East 455 524 37,000  Level Minneapolis Center
Thu 11:56:20 PM 41.5314 -92.7931 78° East 455 524 37,000  Level Minneapolis Center
Thu 11:57:21 PM 41.5558 -92.6278 79° East 456 525 37,000  Level Minneapolis Center
Thu 11:57:58 PM 41.5722 -92.5144 79° East 458 527 37,000  Level Chicago Center
Thu 11:58:58 PM 41.5964 -92.3519 79° East 454 522 37,000  Level Chicago Center
Thu 11:59:59 PM 41.6200 -92.1858 79° East 459 528 37,000  Level Chicago Center
Fri 12:01:00 AM 41.6433 -92.0222 79° East 456 525 37,000  Level Chicago Center
Fri 12:02:01 AM 41.6667 -91.8581 79° East 456 525 37,000  Level Chicago Center
Fri 12:03:02 AM 41.6944 -91.6619 79° East 453 521 37,000  Level Chicago Center
Fri 12:04:03 AM 41.7172 -91.4961 80° East 458 527 37,000  Level Chicago Center
Fri 12:05:04 AM 41.7403 -91.3328 79° East 455 524 37,000  Level Chicago Center
Fri 12:06:04 AM 41.7619 -91.1692 80° East 453 521 37,000  Level Chicago Center
Fri 12:07:05 AM 41.7839 -91.0053 80° East 452 520 37,000  Level Chicago Center
Fri 12:08:06 AM 41.8053 -90.8394 80° East 456 525 37,000  Level Chicago Center
Fri 12:09:06 AM 41.8275 -90.6728 80° East 459 528 37,000  Level Chicago Center
Fri 12:10:07 AM 41.8489 -90.5081 80° East 458 527 37,000  Level Chicago Center
Fri 12:11:08 AM 41.8744 -90.3081 80° East 458 527 37,000  Level Chicago Center
Fri 12:12:08 AM 41.8958 -90.1431 80° East 456 525 37,000  Level Chicago Center
Fri 12:13:09 AM 41.9153 -89.9792 81° East 455 524 37,000  Level Chicago Center
Fri 12:14:10 AM 41.9350 -89.8111 81° East 448 516 37,000  Level Chicago Center
Fri 12:15:10 AM 41.9564 -89.6458 80° East 451 519 37,000  Level Chicago Center
Fri 12:16:11 AM 41.9769 -89.4764 81° East 461 531 37,000  Level Chicago Center
Fri 12:17:11 AM 41.9964 -89.3119 81° East 451 519 37,000  Level Chicago Center
Fri 12:18:12 AM 42.0142 -89.1497 82° East 440 506 37,000  Level Chicago Center
Fri 12:19:13 AM 42.0331 -88.9872 81° East 441 507 37,000  Level Chicago Center
Fri 12:20:13 AM 42.0517 -88.8239 81° East 444 511 37,000  Level Chicago Center
Fri 12:21:14 AM 42.0703 -88.6594 81° East 446 513 37,000  Level Chicago Center
Fri 12:22:14 AM 42.0883 -88.4961 81° East 443 510 37,000  Level Chicago Center
Fri 12:23:15 AM 42.1058 -88.3319 82° East 442 509 37,000  Level Chicago Center
Fri 12:24:15 AM 42.1236 -88.1675 82° East 443 510 37,000  Level Chicago Center
Fri 12:25:16 AM 42.1406 -88.0039 82° East 441 507 37,000  Level Chicago Center
Fri 12:26:16 AM 42.1575 -87.8386 82° East 444 511 37,000  Level Chicago Center
Fri 12:27:17 AM 42.1747 -87.6736 82° East 444 511 37,000  Level Chicago Center
Fri 12:28:17 AM 42.1917 -87.5097 82° East 444 511 37,000  Level Chicago Center
Fri 12:29:17 AM 42.2089 -87.3444 82° East 445 512 37,000  Level Chicago Center
Fri 12:30:18 AM 42.2283 -87.1472 82° East 444 511 37,000  Level Chicago Center
Fri 12:31:18 AM 42.2439 -86.9817 83° East 445 512 37,000  Level Chicago Center
Fri 12:32:19 AM 42.2592 -86.8158 83° East 446 513 37,000  Level Chicago Center
Fri 12:33:19 AM 42.2733 -86.6731 82° East 445 512 37,000 744 Level Chicago Center
Fri 12:34:20 AM 42.2894 -86.5047 83° East 452 520 38,500 992 Climbing Chicago Center
Fri 12:35:20 AM 42.3058 -86.3186 83° East 442 509 39,000 248 Climbing Chicago Center
Fri 12:36:21 AM 42.3206 -86.1569 83° East 440 506 39,000  Level Chicago Center
Fri 12:37:21 AM 42.3350 -85.9936 83° East 440 506 39,000  Level Chicago Center
Fri 12:38:22 AM 42.3481 -85.8325 84° East 436 502 39,000  Level Chicago Center
Fri 12:39:22 AM 42.3628 -85.6714 83° East 435 501 39,000  Level Chicago Center
Fri 12:40:23 AM 42.3756 -85.5094 84° East 436 502 39,000  Level Chicago Center
Fri 12:41:23 AM 42.3892 -85.3486 83° East 435 501 39,000  Level Chicago Center
Fri 12:42:23 AM 42.4028 -85.1911 83° East 428 493 39,000  Level Chicago Center
Fri 12:43:24 AM 42.4158 -85.0311 84° East 429 494 39,000  Level Chicago Center
Fri 12:44:24 AM 42.4281 -84.8711 84° East 429 494 39,000  Level Chicago Center
Fri 12:45:25 AM 42.4406 -84.7114 84° East 430 495 39,000  Level Chicago Center
Fri 12:46:25 AM 42.4528 -84.5514 84° East 430 495 39,000  Level Chicago Center
Fri 12:47:25 AM 42.4639 -84.3903 85° East 430 495 39,000  Level Chicago Center
Fri 12:48:34 AM 42.4789 -84.1842 84° East 421 484 39,000  Level Cleveland Center
Fri 12:49:34 AM 42.4881 -84.0242 86° East 421 484 39,000  Level Cleveland Center
Fri 12:50:34 AM 42.5008 -83.8642 84° East 421 484 39,000  Level Cleveland Center
Fri 12:51:34 AM 42.5089 -83.7322 85° East 421 484 39,000 -750 Level Cleveland Center
Fri 12:52:34 AM 42.5239 -83.5556 83° East 421 484 37,500 -1,000 Descending Cleveland Center
Fri 12:53:34 AM 42.5342 -83.3925 85° East 426 490 37,000 -250 Descending Cleveland Center
Fri 12:54:34 AM 42.5425 -83.2267 86° East 431 496 37,000  Level Cleveland Center
Fri 12:55:34 AM 42.5522 -83.0636 85° East 431 496 37,000  Level Cleveland Center
Fri 12:56:34 AM 42.5619 -82.9003 85° East 436 502 37,000  Level Cleveland Center
Fri 12:57:34 AM 42.5714 -82.7317 86° East 442 509 37,000  Level Cleveland Center
Fri 12:58:34 AM 42.5806 -82.5656 86° East 442 509 37,000  Level Cleveland Center
Fri 12:59:34 AM 42.5897 -82.3994 86° East 442 509 37,000  Level Cleveland Center
Fri 01:00:34 AM 42.5983 -82.2331 86° East 442 509 37,000  Level Cleveland Center
Fri 01:01:34 AM 42.6089 -82.0669 85° East 442 509 37,000  Level Cleveland Center
Fri 01:02:34 AM 42.6172 -81.8981 86° East 442 509 37,000  Level Cleveland Center
Fri 01:03:34 AM 42.6275 -81.7175 86° East 442 509 37,000  Level Cleveland Center
Fri 01:04:34 AM 42.6353 -81.5511 86° East 442 509 37,000  Level Cleveland Center
Fri 01:05:34 AM 42.6450 -81.3847 85° East 442 509 37,000  Level Cleveland Center
Fri 01:06:34 AM 42.6522 -81.2211 87° East 442 509 37,000  Level Cleveland Center
Fri 01:07:34 AM 42.6594 -81.0519 87° East 437 503 37,000  Level Cleveland Center
Fri 01:08:34 AM 42.6661 -80.8853 87° East 442 509 37,000  Level Cleveland Center
Fri 01:09:34 AM 42.6728 -80.7186 87° East 442 509 37,000  Level Cleveland Center
Fri 01:10:34 AM 42.6792 -80.5492 87° East 442 509 37,000  Level Cleveland Center
Fri 01:11:34 AM 42.6831 -80.3939 88° East 442 509 37,000  Level Cleveland Center
Fri 01:12:34 AM 42.6931 -80.2272 85° East 442 509 37,000  Level Cleveland Center
Fri 01:13:34 AM 42.6967 -80.0633 88° East 442 509 37,000  Level Cleveland Center
Fri 01:14:34 AM 42.7061 -79.8797 86° East 442 509 37,000 -500 Level Cleveland Center
Fri 01:15:34 AM 42.7133 -79.7100 87° East 442 509 36,000 -1,000 Descending Cleveland Center
Fri 01:16:34 AM 42.7161 -79.5378 89° East 442 509 35,000 -950 Descending Cleveland Center
Fri 01:17:34 AM 42.7247 -79.3650 86° East 448 516 34,100 -950 Descending Cleveland Center
Fri 01:18:34 AM 42.7289 -79.1842 88° East 458 527 33,100 -950 Descending Cleveland Center
Fri 01:19:34 AM 42.7308 -79.0061 89° East 464 534 32,200 -950 Descending Cleveland Center
Fri 01:20:34 AM 42.7367 -78.8278 87° East 470 541 31,200 -1,050 Descending Cleveland Center
Fri 01:21:34 AM 42.7422 -78.6494 88° East 470 541 30,100 -1,050 Descending Cleveland Center
Fri 01:22:34 AM 42.7453 -78.4742 89° East 470 541 29,100 -550 Descending Cleveland Center
Fri 01:23:34 AM 42.7481 -78.2958 89° East 470 541 29,000 -50 Descending Cleveland Center
Fri 01:24:34 AM 42.7506 -78.1147 89° East 470 541 29,000  Level Cleveland Center
Fri 01:25:34 AM 42.7531 -77.9367 89° East 470 541 29,000  Level Cleveland Center
Fri 01:26:34 AM 42.7578 -77.7922 87° East 475 547 29,000  Level Cleveland Center
Fri 01:28:18 AM 42.7614 -77.4411 89° East 490 564 29,000  Level Boston Center
Fri 01:29:18 AM 42.7614 -77.2994 90° East 484 557 29,000  Level Boston Center
Fri 01:30:18 AM 42.7644 -77.0789 89° East 479 551 29,000  Level Boston Center
Fri 01:31:18 AM 42.7653 -76.9008 90° East 479 551 29,000  Level Boston Center
Fri 01:32:18 AM 42.7678 -76.7228 89° East 479 551 29,000  Level Boston Center
Fri 01:33:18 AM 42.7683 -76.5389 90° East 479 551 29,000  Level Boston Center
Fri 01:34:18 AM 42.7683 -76.3633 90° East 479 551 29,000  Level Boston Center
Fri 01:35:18 AM 42.7661 -76.1822 91° East 479 551 29,000  Level Boston Center
Fri 01:36:18 AM 42.7675 -76.0097 89° East 474 545 29,000 -500 Level Boston Center
Fri 01:37:18 AM 42.7500 -75.8278 97° East 474 545 28,000 -1,650 Descending Boston Center
Fri 01:38:18 AM 42.7322 -75.6569 98° East 474 545 25,700 -2,300 Descending Boston Center
Fri 01:39:18 AM 42.7178 -75.4922 97° East 455 524 23,400 -2,250 Descending Boston Center
Fri 01:40:18 AM 42.7050 -75.3447 97° East 438 504 21,200 -2,200 Descending Boston Center
Fri 01:41:18 AM 42.6903 -75.1914 97° East 425 489 19,000 -2,050 Descending Boston Center
Fri 01:42:18 AM 42.6769 -75.0411 97° East 412 474 17,100 -2,050 Descending Boston Center
Fri 01:43:18 AM 42.6636 -74.8939 97° East 400 460 14,900 -2,250 Descending Boston Center
Fri 01:44:18 AM 42.6481 -74.7350 98° East 395 455 12,600 -1,950 Descending Boston Center
Fri 01:45:18 AM 42.6364 -74.5964 96° East 376 433 11,000 -850 Descending Boston Center
Fri 01:46:18 AM 42.6239 -74.4717 98° East 352 405 10,900 -800 Descending Boston Center
Fri 01:47:18 AM 42.6114 -74.3583 98° East 308 354 9,400 -1,400 Descending Boston Center
Fri 01:48:18 AM 42.5986 -74.2453 99° East 303 349 8,100 -1,450 Descending Boston Center
Fri 01:49:18 AM 42.5900 -74.1322 96° East 298 343 6,500 -1,550 Descending Boston Center
Fri 01:50:18 AM 42.6039 -74.0394 78° East 287 330 5,000 -1,600 Descending Boston Center
Fri 01:51:18 AM 42.6219 -73.9356 77° East 281 323 3,300 -800 Descending Boston Center
Fri 01:52:18 AM 42.6333 -73.8483 80° East 259 298 3,400 -550 Climbing Boston Center
Fri 01:53:18 AM 42.6425 -73.7919 78° East 206 237 2,200 -965 Descending Boston Center
Fri 01:54:41 AM 42.6964 -73.8044 350° North 135 155 1,100 -795 Descending Boston Center

Login

Don't have an account? Register now (free) for customized features, flight alerts, and more!